sensor_id;sensor_type;location;lat;lon;timestamp;P1;durP1;ratioP1;P2;durP2;ratioP2
74342;SDS011;62767;50.300;8.070;2024-01-15T00:00:39;2.35;;;1.30;;
74342;SDS011;62767;50.300;8.070;2024-01-15T00:03:05;2.50;;;1.38;;
74342;SDS011;62767;50.300;8.070;2024-01-15T00:05:30;2.40;;;1.52;;
74342;SDS011;62767;50.300;8.070;2024-01-15T00:07:56;1.95;;;1.30;;
74342;SDS011;62767;50.300;8.070;2024-01-15T00:10:22;2.42;;;1.42;;
74342;SDS011;62767;50.300;8.070;2024-01-15T00:12:48;1.83;;;1.30;;
74342;SDS011;62767;50.300;8.070;2024-01-15T00:15:13;2.05;;;1.20;;
74342;SDS011;62767;50.300;8.070;2024-01-15T00:17:39;2.15;;;1.40;;
74342;SDS011;62767;50.300;8.070;2024-01-15T00:20:05;2.60;;;1.40;;
74342;SDS011;62767;50.300;8.070;2024-01-15T00:22:31;1.73;;;1.10;;
74342;SDS011;62767;50.300;8.070;2024-01-15T00:24:57;1.92;;;1.25;;
74342;SDS011;62767;50.300;8.070;2024-01-15T00:27:22;3.22;;;1.48;;
74342;SDS011;62767;50.300;8.070;2024-01-15T00:29:49;2.17;;;1.05;;
74342;SDS011;62767;50.300;8.070;2024-01-15T00:37:06;2.45;;;1.27;;
74342;SDS011;62767;50.300;8.070;2024-01-15T00:39:32;1.38;;;1.00;;
74342;SDS011;62767;50.300;8.070;2024-01-15T00:41:58;2.10;;;1.27;;
74342;SDS011;62767;50.300;8.070;2024-01-15T00:44:23;2.70;;;1.30;;
74342;SDS011;62767;50.300;8.070;2024-01-15T00:46:49;1.90;;;1.30;;
74342;SDS011;62767;50.300;8.070;2024-01-15T00:49:14;2.58;;;1.55;;
74342;SDS011;62767;50.300;8.070;2024-01-15T00:51:40;2.17;;;1.20;;
74342;SDS011;62767;50.300;8.070;2024-01-15T00:54:06;1.55;;;0.98;;
74342;SDS011;62767;50.300;8.070;2024-01-15T00:56:32;2.28;;;1.10;;
74342;SDS011;62767;50.300;8.070;2024-01-15T00:58:58;2.28;;;1.25;;
74342;SDS011;62767;50.300;8.070;2024-01-15T01:01:23;2.30;;;1.20;;
74342;SDS011;62767;50.300;8.070;2024-01-15T01:03:49;2.20;;;1.27;;
74342;SDS011;62767;50.300;8.070;2024-01-15T01:06:14;2.03;;;1.27;;
74342;SDS011;62767;50.300;8.070;2024-01-15T01:08:40;2.10;;;1.30;;
74342;SDS011;62767;50.300;8.070;2024-01-15T01:11:05;1.63;;;1.10;;
74342;SDS011;62767;50.300;8.070;2024-01-15T01:13:32;2.00;;;1.20;;
74342;SDS011;62767;50.300;8.070;2024-01-15T01:15:58;2.30;;;1.10;;
74342;SDS011;62767;50.300;8.070;2024-01-15T01:18:24;2.28;;;1.23;;
74342;SDS011;62767;50.300;8.070;2024-01-15T01:20:49;1.35;;;1.02;;
74342;SDS011;62767;50.300;8.070;2024-01-15T01:23:15;2.00;;;1.10;;
74342;SDS011;62767;50.300;8.070;2024-01-15T01:25:40;2.03;;;1.27;;
74342;SDS011;62767;50.300;8.070;2024-01-15T01:28:06;1.50;;;1.00;;
74342;SDS011;62767;50.300;8.070;2024-01-15T01:30:31;1.77;;;1.10;;
74342;SDS011;62767;50.300;8.070;2024-01-15T01:32:57;2.33;;;1.23;;
74342;SDS011;62767;50.300;8.070;2024-01-15T01:35:22;2.03;;;1.10;;
74342;SDS011;62767;50.300;8.070;2024-01-15T01:37:48;2.03;;;1.30;;
74342;SDS011;62767;50.300;8.070;2024-01-15T01:40:13;2.20;;;1.30;;
74342;SDS011;62767;50.300;8.070;2024-01-15T01:42:40;2.15;;;1.25;;
74342;SDS011;62767;50.300;8.070;2024-01-15T01:45:06;1.45;;;1.02;;
74342;SDS011;62767;50.300;8.070;2024-01-15T01:47:32;1.90;;;1.17;;
74342;SDS011;62767;50.300;8.070;2024-01-15T01:49:57;2.20;;;1.10;;
74342;SDS011;62767;50.300;8.070;2024-01-15T01:52:23;1.73;;;0.93;;
74342;SDS011;62767;50.300;8.070;2024-01-15T01:54:49;2.75;;;1.27;;
74342;SDS011;62767;50.300;8.070;2024-01-15T01:57:15;1.92;;;1.02;;
74342;SDS011;62767;50.300;8.070;2024-01-15T01:59:43;3.13;;;2.05;;
74342;SDS011;62767;50.300;8.070;2024-01-15T02:02:08;2.42;;;1.20;;
74342;SDS011;62767;50.300;8.070;2024-01-15T02:04:34;2.17;;;1.10;;
74342;SDS011;62767;50.300;8.070;2024-01-15T02:07:01;1.40;;;1.00;;
74342;SDS011;62767;50.300;8.070;2024-01-15T02:09:27;1.88;;;1.10;;
74342;SDS011;62767;50.300;8.070;2024-01-15T02:11:53;1.90;;;1.15;;
74342;SDS011;62767;50.300;8.070;2024-01-15T02:14:19;1.60;;;0.90;;
74342;SDS011;62767;50.300;8.070;2024-01-15T02:16:44;2.10;;;0.90;;
74342;SDS011;62767;50.300;8.070;2024-01-15T02:19:19;1.65;;;1.00;;
74342;SDS011;62767;50.300;8.070;2024-01-15T02:21:44;2.20;;;1.20;;
74342;SDS011;62767;50.300;8.070;2024-01-15T02:24:10;1.90;;;1.10;;
74342;SDS011;62767;50.300;8.070;2024-01-15T02:26:36;1.98;;;1.10;;
74342;SDS011;62767;50.300;8.070;2024-01-15T02:31:30;1.60;;;0.90;;
74342;SDS011;62767;50.300;8.070;2024-01-15T02:33:55;1.52;;;0.93;;
74342;SDS011;62767;50.300;8.070;2024-01-15T02:36:21;1.70;;;0.93;;
74342;SDS011;62767;50.300;8.070;2024-01-15T02:38:46;1.60;;;0.95;;
74342;SDS011;62767;50.300;8.070;2024-01-15T02:41:12;1.92;;;1.00;;
74342;SDS011;62767;50.300;8.070;2024-01-15T02:43:39;2.53;;;1.00;;
74342;SDS011;62767;50.300;8.070;2024-01-15T02:46:05;1.52;;;0.95;;
74342;SDS011;62767;50.300;8.070;2024-01-15T02:48:31;1.50;;;0.90;;
74342;SDS011;62767;50.300;8.070;2024-01-15T02:50:58;1.70;;;1.08;;
74342;SDS011;62767;50.300;8.070;2024-01-15T02:53:23;1.65;;;1.17;;
74342;SDS011;62767;50.300;8.070;2024-01-15T02:55:48;1.75;;;1.10;;
74342;SDS011;62767;50.300;8.070;2024-01-15T02:58:14;0.98;;;0.70;;
74342;SDS011;62767;50.300;8.070;2024-01-15T03:00:40;1.00;;;0.70;;
74342;SDS011;62767;50.300;8.070;2024-01-15T03:03:05;1.52;;;0.90;;
74342;SDS011;62767;50.300;8.070;2024-01-15T03:05:31;1.80;;;1.13;;
74342;SDS011;62767;50.300;8.070;2024-01-15T03:07:56;1.27;;;0.90;;
74342;SDS011;62767;50.300;8.070;2024-01-15T03:10:22;1.17;;;0.75;;
74342;SDS011;62767;50.300;8.070;2024-01-15T03:12:47;1.65;;;1.10;;
74342;SDS011;62767;50.300;8.070;2024-01-15T03:15:13;1.85;;;1.08;;
74342;SDS011;62767;50.300;8.070;2024-01-15T03:17:38;1.65;;;1.00;;
74342;SDS011;62767;50.300;8.070;2024-01-15T03:20:04;1.50;;;1.05;;
74342;SDS011;62767;50.300;8.070;2024-01-15T03:22:30;1.40;;;0.90;;
74342;SDS011;62767;50.300;8.070;2024-01-15T03:24:55;2.08;;;1.27;;
74342;SDS011;62767;50.300;8.070;2024-01-15T03:27:21;2.05;;;1.25;;
74342;SDS011;62767;50.300;8.070;2024-01-15T03:29:46;1.77;;;1.10;;
74342;SDS011;62767;50.300;8.070;2024-01-15T03:32:12;1.33;;;0.90;;
74342;SDS011;62767;50.300;8.070;2024-01-15T03:34:37;2.08;;;1.13;;
74342;SDS011;62767;50.300;8.070;2024-01-15T03:37:03;1.48;;;0.90;;
74342;SDS011;62767;50.300;8.070;2024-01-15T03:39:29;1.42;;;0.80;;
74342;SDS011;62767;50.300;8.070;2024-01-15T03:41:55;1.98;;;1.02;;
74342;SDS011;62767;50.300;8.070;2024-01-15T03:44:20;1.95;;;1.08;;
74342;SDS011;62767;50.300;8.070;2024-01-15T03:46:46;1.42;;;1.10;;
74342;SDS011;62767;50.300;8.070;2024-01-15T03:49:11;1.90;;;1.10;;
74342;SDS011;62767;50.300;8.070;2024-01-15T03:51:37;1.48;;;1.00;;
74342;SDS011;62767;50.300;8.070;2024-01-15T03:54:02;1.02;;;0.80;;
74342;SDS011;62767;50.300;8.070;2024-01-15T03:56:28;1.92;;;1.08;;
74342;SDS011;62767;50.300;8.070;2024-01-15T03:58:54;1.00;;;0.80;;
74342;SDS011;62767;50.300;8.070;2024-01-15T04:01:19;1.58;;;0.98;;
74342;SDS011;62767;50.300;8.070;2024-01-15T04:03:45;1.42;;;0.90;;
74342;SDS011;62767;50.300;8.070;2024-01-15T04:06:10;2.35;;;1.25;;
74342;SDS011;62767;50.300;8.070;2024-01-15T04:08:36;2.17;;;1.20;;
74342;SDS011;62767;50.300;8.070;2024-01-15T04:11:01;1.40;;;1.10;;
74342;SDS011;62767;50.300;8.070;2024-01-15T04:13:27;1.10;;;0.80;;
74342;SDS011;62767;50.300;8.070;2024-01-15T04:15:53;1.85;;;1.00;;
74342;SDS011;62767;50.300;8.070;2024-01-15T04:18:18;1.73;;;1.10;;
74342;SDS011;62767;50.300;8.070;2024-01-15T04:20:44;1.85;;;0.90;;
74342;SDS011;62767;50.300;8.070;2024-01-15T04:23:09;6.65;;;1.00;;
74342;SDS011;62767;50.300;8.070;2024-01-15T04:25:35;1.35;;;0.90;;
74342;SDS011;62767;50.300;8.070;2024-01-15T04:28:00;1.75;;;0.90;;
74342;SDS011;62767;50.300;8.070;2024-01-15T04:30:26;2.10;;;1.10;;
74342;SDS011;62767;50.300;8.070;2024-01-15T04:32:51;2.10;;;1.00;;
74342;SDS011;62767;50.300;8.070;2024-01-15T04:35:17;2.08;;;0.90;;
74342;SDS011;62767;50.300;8.070;2024-01-15T04:37:42;2.38;;;1.10;;
74342;SDS011;62767;50.300;8.070;2024-01-15T04:40:08;2.67;;;1.40;;
74342;SDS011;62767;50.300;8.070;2024-01-15T04:42:34;3.38;;;1.42;;
74342;SDS011;62767;50.300;8.070;2024-01-15T04:45:00;2.63;;;1.40;;
74342;SDS011;62767;50.300;8.070;2024-01-15T04:47:25;3.10;;;1.30;;
74342;SDS011;62767;50.300;8.070;2024-01-15T04:49:51;2.20;;;1.10;;
74342;SDS011;62767;50.300;8.070;2024-01-15T04:52:16;2.30;;;1.27;;
74342;SDS011;62767;50.300;8.070;2024-01-15T04:54:42;2.65;;;1.27;;
74342;SDS011;62767;50.300;8.070;2024-01-15T04:57:07;2.60;;;1.27;;
74342;SDS011;62767;50.300;8.070;2024-01-15T04:59:33;2.30;;;1.08;;
74342;SDS011;62767;50.300;8.070;2024-01-15T05:01:58;3.83;;;1.25;;
74342;SDS011;62767;50.300;8.070;2024-01-15T05:04:24;2.10;;;1.02;;
74342;SDS011;62767;50.300;8.070;2024-01-15T05:06:50;2.83;;;1.23;;
74342;SDS011;62767;50.300;8.070;2024-01-15T05:09:15;2.05;;;1.08;;
74342;SDS011;62767;50.300;8.070;2024-01-15T05:11:41;3.03;;;1.20;;
74342;SDS011;62767;50.300;8.070;2024-01-15T05:14:06;3.40;;;1.25;;
74342;SDS011;62767;50.300;8.070;2024-01-15T05:16:32;2.60;;;1.40;;
74342;SDS011;62767;50.300;8.070;2024-01-15T05:18:57;2.13;;;1.20;;
74342;SDS011;62767;50.300;8.070;2024-01-15T05:21:23;1.90;;;0.95;;
74342;SDS011;62767;50.300;8.070;2024-01-15T05:23:48;2.10;;;1.10;;
74342;SDS011;62767;50.300;8.070;2024-01-15T05:26:14;2.20;;;1.20;;
74342;SDS011;62767;50.300;8.070;2024-01-15T05:28:42;2.60;;;1.20;;
74342;SDS011;62767;50.300;8.070;2024-01-15T05:31:08;2.55;;;1.10;;
74342;SDS011;62767;50.300;8.070;2024-01-15T05:33:34;2.47;;;1.20;;
74342;SDS011;62767;50.300;8.070;2024-01-15T05:36:00;2.33;;;0.80;;
74342;SDS011;62767;50.300;8.070;2024-01-15T05:38:26;1.55;;;0.90;;
74342;SDS011;62767;50.300;8.070;2024-01-15T05:40:52;3.72;;;1.20;;
74342;SDS011;62767;50.300;8.070;2024-01-15T05:43:18;2.28;;;0.98;;
74342;SDS011;62767;50.300;8.070;2024-01-15T05:45:43;2.22;;;1.10;;
74342;SDS011;62767;50.300;8.070;2024-01-15T05:48:10;2.65;;;1.13;;
74342;SDS011;62767;50.300;8.070;2024-01-15T05:50:35;1.80;;;0.90;;
74342;SDS011;62767;50.300;8.070;2024-01-15T05:53:01;1.38;;;0.85;;
74342;SDS011;62767;50.300;8.070;2024-01-15T05:55:27;1.73;;;1.00;;
74342;SDS011;62767;50.300;8.070;2024-01-15T05:57:53;2.78;;;1.23;;
74342;SDS011;62767;50.300;8.070;2024-01-15T06:00:19;1.85;;;1.10;;
74342;SDS011;62767;50.300;8.070;2024-01-15T06:02:44;1.60;;;0.90;;
74342;SDS011;62767;50.300;8.070;2024-01-15T06:05:10;1.63;;;0.90;;
74342;SDS011;62767;50.300;8.070;2024-01-15T06:07:35;1.30;;;0.75;;
74342;SDS011;62767;50.300;8.070;2024-01-15T06:10:02;1.77;;;1.20;;
74342;SDS011;62767;50.300;8.070;2024-01-15T06:12:28;1.52;;;0.93;;
74342;SDS011;62767;50.300;8.070;2024-01-15T06:14:53;2.03;;;1.00;;
74342;SDS011;62767;50.300;8.070;2024-01-15T06:17:19;1.60;;;1.00;;
74342;SDS011;62767;50.300;8.070;2024-01-15T06:19:44;2.03;;;1.02;;
74342;SDS011;62767;50.300;8.070;2024-01-15T06:22:10;3.15;;;1.15;;
74342;SDS011;62767;50.300;8.070;2024-01-15T06:24:35;1.92;;;1.25;;
74342;SDS011;62767;50.300;8.070;2024-01-15T06:27:01;2.67;;;1.33;;
74342;SDS011;62767;50.300;8.070;2024-01-15T06:29:26;2.55;;;1.20;;
74342;SDS011;62767;50.300;8.070;2024-01-15T06:31:52;2.13;;;1.00;;
74342;SDS011;62767;50.300;8.070;2024-01-15T06:34:18;2.50;;;1.25;;
74342;SDS011;62767;50.300;8.070;2024-01-15T06:36:44;1.75;;;1.20;;
74342;SDS011;62767;50.300;8.070;2024-01-15T06:39:09;2.08;;;1.30;;
74342;SDS011;62767;50.300;8.070;2024-01-15T06:41:35;2.65;;;1.20;;
74342;SDS011;62767;50.300;8.070;2024-01-15T06:44:08;2.10;;;1.13;;
74342;SDS011;62767;50.300;8.070;2024-01-15T06:46:41;2.70;;;1.10;;
74342;SDS011;62767;50.300;8.070;2024-01-15T06:49:08;2.70;;;1.23;;
74342;SDS011;62767;50.300;8.070;2024-01-15T06:51:35;1.90;;;1.00;;
74342;SDS011;62767;50.300;8.070;2024-01-15T06:54:00;3.42;;;1.08;;
74342;SDS011;62767;50.300;8.070;2024-01-15T06:56:26;2.38;;;1.30;;
74342;SDS011;62767;50.300;8.070;2024-01-15T06:58:51;2.67;;;1.40;;
74342;SDS011;62767;50.300;8.070;2024-01-15T07:01:17;2.42;;;1.20;;
74342;SDS011;62767;50.300;8.070;2024-01-15T07:03:42;1.65;;;1.00;;
74342;SDS011;62767;50.300;8.070;2024-01-15T07:06:08;1.15;;;0.93;;
74342;SDS011;62767;50.300;8.070;2024-01-15T07:08:33;1.63;;;0.80;;
74342;SDS011;62767;50.300;8.070;2024-01-15T07:10:59;3.08;;;1.42;;
74342;SDS011;62767;50.300;8.070;2024-01-15T07:13:24;1.42;;;0.93;;
74342;SDS011;62767;50.300;8.070;2024-01-15T07:15:50;2.22;;;1.40;;
74342;SDS011;62767;50.300;8.070;2024-01-15T07:18:15;3.05;;;1.50;;
74342;SDS011;62767;50.300;8.070;2024-01-15T07:20:41;3.55;;;1.40;;
74342;SDS011;62767;50.300;8.070;2024-01-15T07:23:07;2.30;;;1.30;;
74342;SDS011;62767;50.300;8.070;2024-01-15T07:25:32;2.35;;;1.30;;
74342;SDS011;62767;50.300;8.070;2024-01-15T07:27:58;3.08;;;1.40;;
74342;SDS011;62767;50.300;8.070;2024-01-15T07:30:23;1.95;;;1.17;;
74342;SDS011;62767;50.300;8.070;2024-01-15T07:32:49;2.25;;;1.25;;
74342;SDS011;62767;50.300;8.070;2024-01-15T07:35:15;1.88;;;1.10;;
74342;SDS011;62767;50.300;8.070;2024-01-15T07:37:40;2.03;;;1.25;;
74342;SDS011;62767;50.300;8.070;2024-01-15T07:40:06;2.95;;;1.60;;
74342;SDS011;62767;50.300;8.070;2024-01-15T07:42:34;2.10;;;1.27;;
74342;SDS011;62767;50.300;8.070;2024-01-15T07:45:00;3.53;;;1.95;;
74342;SDS011;62767;50.300;8.070;2024-01-15T07:47:25;2.50;;;1.30;;
74342;SDS011;62767;50.300;8.070;2024-01-15T07:49:52;2.40;;;1.48;;
74342;SDS011;62767;50.300;8.070;2024-01-15T07:52:17;2.40;;;1.35;;
74342;SDS011;62767;50.300;8.070;2024-01-15T07:54:43;2.17;;;1.23;;
74342;SDS011;62767;50.300;8.070;2024-01-15T07:57:09;2.35;;;1.13;;
74342;SDS011;62767;50.300;8.070;2024-01-15T07:59:35;3.00;;;1.60;;
74342;SDS011;62767;50.300;8.070;2024-01-15T08:02:01;2.88;;;1.52;;
74342;SDS011;62767;50.300;8.070;2024-01-15T08:04:26;2.38;;;1.27;;
74342;SDS011;62767;50.300;8.070;2024-01-15T08:06:52;3.28;;;1.40;;
74342;SDS011;62767;50.300;8.070;2024-01-15T08:09:18;2.88;;;1.70;;
74342;SDS011;62767;50.300;8.070;2024-01-15T08:11:43;2.55;;;1.50;;
74342;SDS011;62767;50.300;8.070;2024-01-15T08:14:09;2.75;;;1.27;;
74342;SDS011;62767;50.300;8.070;2024-01-15T08:16:35;3.38;;;1.55;;
74342;SDS011;62767;50.300;8.070;2024-01-15T08:19:01;3.13;;;1.60;;
74342;SDS011;62767;50.300;8.070;2024-01-15T08:21:27;2.95;;;1.50;;
74342;SDS011;62767;50.300;8.070;2024-01-15T08:23:58;2.65;;;1.40;;
74342;SDS011;62767;50.300;8.070;2024-01-15T08:26:27;3.40;;;1.55;;
74342;SDS011;62767;50.300;8.070;2024-01-15T08:28:54;2.63;;;1.50;;
74342;SDS011;62767;50.300;8.070;2024-01-15T08:31:20;2.80;;;1.55;;
74342;SDS011;62767;50.300;8.070;2024-01-15T08:33:46;3.10;;;1.60;;
74342;SDS011;62767;50.300;8.070;2024-01-15T08:36:11;2.63;;;1.27;;
74342;SDS011;62767;50.300;8.070;2024-01-15T08:38:37;2.78;;;1.55;;
74342;SDS011;62767;50.300;8.070;2024-01-15T08:41:03;3.75;;;1.70;;
74342;SDS011;62767;50.300;8.070;2024-01-15T08:43:29;3.40;;;1.55;;
74342;SDS011;62767;50.300;8.070;2024-01-15T08:45:56;3.50;;;1.98;;
74342;SDS011;62767;50.300;8.070;2024-01-15T08:48:22;4.03;;;1.80;;
74342;SDS011;62767;50.300;8.070;2024-01-15T08:50:47;3.45;;;1.55;;
74342;SDS011;62767;50.300;8.070;2024-01-15T08:53:13;3.95;;;1.92;;
74342;SDS011;62767;50.300;8.070;2024-01-15T08:55:39;3.42;;;1.65;;
74342;SDS011;62767;50.300;8.070;2024-01-15T08:58:05;3.45;;;1.60;;
74342;SDS011;62767;50.300;8.070;2024-01-15T09:00:31;3.40;;;1.50;;
74342;SDS011;62767;50.300;8.070;2024-01-15T09:02:57;2.80;;;1.45;;
74342;SDS011;62767;50.300;8.070;2024-01-15T09:05:22;3.38;;;1.60;;
74342;SDS011;62767;50.300;8.070;2024-01-15T09:07:48;3.08;;;1.77;;
74342;SDS011;62767;50.300;8.070;2024-01-15T09:10:14;3.58;;;1.60;;
74342;SDS011;62767;50.300;8.070;2024-01-15T09:12:40;2.72;;;1.52;;
74342;SDS011;62767;50.300;8.070;2024-01-15T09:15:05;3.22;;;1.55;;
74342;SDS011;62767;50.300;8.070;2024-01-15T09:17:31;3.33;;;1.70;;
74342;SDS011;62767;50.300;8.070;2024-01-15T09:19:57;2.55;;;1.60;;
74342;SDS011;62767;50.300;8.070;2024-01-15T09:22:23;4.00;;;1.73;;
74342;SDS011;62767;50.300;8.070;2024-01-15T09:24:48;3.80;;;1.70;;
74342;SDS011;62767;50.300;8.070;2024-01-15T09:27:14;3.28;;;1.90;;
74342;SDS011;62767;50.300;8.070;2024-01-15T09:29:40;2.47;;;1.25;;
74342;SDS011;62767;50.300;8.070;2024-01-15T09:32:07;3.75;;;2.10;;
74342;SDS011;62767;50.300;8.070;2024-01-15T09:34:36;4.05;;;2.00;;
74342;SDS011;62767;50.300;8.070;2024-01-15T09:37:02;3.15;;;1.92;;
74342;SDS011;62767;50.300;8.070;2024-01-15T09:39:28;3.20;;;1.60;;
74342;SDS011;62767;50.300;8.070;2024-01-15T09:41:53;3.45;;;1.98;;
74342;SDS011;62767;50.300;8.070;2024-01-15T09:44:20;3.55;;;2.00;;
74342;SDS011;62767;50.300;8.070;2024-01-15T09:46:49;3.80;;;2.20;;
74342;SDS011;62767;50.300;8.070;2024-01-15T09:49:17;3.67;;;1.95;;
74342;SDS011;62767;50.300;8.070;2024-01-15T09:51:43;3.90;;;2.30;;
74342;SDS011;62767;50.300;8.070;2024-01-15T09:54:09;3.65;;;1.77;;
74342;SDS011;62767;50.300;8.070;2024-01-15T09:56:35;3.60;;;1.98;;
74342;SDS011;62767;50.300;8.070;2024-01-15T09:59:01;4.05;;;2.03;;
74342;SDS011;62767;50.300;8.070;2024-01-15T10:01:27;3.45;;;2.00;;
74342;SDS011;62767;50.300;8.070;2024-01-15T10:03:54;4.35;;;2.05;;
74342;SDS011;62767;50.300;8.070;2024-01-15T10:06:21;4.10;;;2.33;;
74342;SDS011;62767;50.300;8.070;2024-01-15T10:08:47;6.30;;;2.20;;
74342;SDS011;62767;50.300;8.070;2024-01-15T10:11:14;3.17;;;1.77;;
74342;SDS011;62767;50.300;8.070;2024-01-15T10:13:40;3.85;;;1.95;;
74342;SDS011;62767;50.300;8.070;2024-01-15T10:16:06;4.32;;;2.00;;
74342;SDS011;62767;50.300;8.070;2024-01-15T10:18:32;3.65;;;1.92;;
74342;SDS011;62767;50.300;8.070;2024-01-15T10:20:57;4.97;;;2.25;;
74342;SDS011;62767;50.300;8.070;2024-01-15T10:23:23;3.58;;;2.05;;
74342;SDS011;62767;50.300;8.070;2024-01-15T10:25:49;3.20;;;1.92;;
74342;SDS011;62767;50.300;8.070;2024-01-15T10:30:44;4.47;;;2.58;;
74342;SDS011;62767;50.300;8.070;2024-01-15T10:33:10;4.00;;;2.38;;
74342;SDS011;62767;50.300;8.070;2024-01-15T10:38:03;3.90;;;2.20;;
74342;SDS011;62767;50.300;8.070;2024-01-15T10:40:30;4.13;;;2.22;;
74342;SDS011;62767;50.300;8.070;2024-01-15T10:42:56;4.38;;;2.13;;
74342;SDS011;62767;50.300;8.070;2024-01-15T10:45:21;3.75;;;2.20;;
74342;SDS011;62767;50.300;8.070;2024-01-15T10:47:47;4.38;;;2.10;;
74342;SDS011;62767;50.300;8.070;2024-01-15T10:50:13;3.80;;;2.00;;
74342;SDS011;62767;50.300;8.070;2024-01-15T10:52:40;3.88;;;2.10;;
74342;SDS011;62767;50.300;8.070;2024-01-15T10:57:34;4.15;;;2.25;;
74342;SDS011;62767;50.300;8.070;2024-01-15T11:00:00;4.50;;;1.90;;
74342;SDS011;62767;50.300;8.070;2024-01-15T11:02:29;4.78;;;2.08;;
74342;SDS011;62767;50.300;8.070;2024-01-15T11:04:55;3.70;;;1.98;;
74342;SDS011;62767;50.300;8.070;2024-01-15T11:07:21;4.50;;;2.35;;
74342;SDS011;62767;50.300;8.070;2024-01-15T11:09:49;4.18;;;2.13;;
74342;SDS011;62767;50.300;8.070;2024-01-15T11:12:15;3.83;;;2.20;;
74342;SDS011;62767;50.300;8.070;2024-01-15T11:14:46;3.47;;;2.10;;
74342;SDS011;62767;50.300;8.070;2024-01-15T11:17:13;3.70;;;2.20;;
74342;SDS011;62767;50.300;8.070;2024-01-15T11:19:49;4.30;;;2.47;;
74342;SDS011;62767;50.300;8.070;2024-01-15T11:25:03;4.40;;;2.30;;
74342;SDS011;62767;50.300;8.070;2024-01-15T11:27:41;3.03;;;1.73;;
74342;SDS011;62767;50.300;8.070;2024-01-15T11:30:12;3.65;;;2.15;;
74342;SDS011;62767;50.300;8.070;2024-01-15T11:32:39;3.67;;;2.22;;
74342;SDS011;62767;50.300;8.070;2024-01-15T11:35:06;3.80;;;1.83;;
74342;SDS011;62767;50.300;8.070;2024-01-15T11:40:35;3.35;;;1.90;;
74342;SDS011;62767;50.300;8.070;2024-01-15T11:43:03;3.60;;;1.80;;
74342;SDS011;62767;50.300;8.070;2024-01-15T11:45:30;3.83;;;2.05;;
74342;SDS011;62767;50.300;8.070;2024-01-15T11:53:06;3.30;;;2.08;;
74342;SDS011;62767;50.300;8.070;2024-01-15T11:55:57;3.38;;;1.80;;
74342;SDS011;62767;50.300;8.070;2024-01-15T11:58:24;4.18;;;2.00;;
74342;SDS011;62767;50.300;8.070;2024-01-15T12:00:50;3.85;;;2.00;;
74342;SDS011;62767;50.300;8.070;2024-01-15T12:03:19;3.03;;;1.83;;
74342;SDS011;62767;50.300;8.070;2024-01-15T12:05:46;3.40;;;2.15;;
74342;SDS011;62767;50.300;8.070;2024-01-15T12:08:11;4.32;;;1.90;;
74342;SDS011;62767;50.300;8.070;2024-01-15T12:10:37;3.67;;;2.03;;
74342;SDS011;62767;50.300;8.070;2024-01-15T12:15:32;3.25;;;1.90;;
74342;SDS011;62767;50.300;8.070;2024-01-15T12:17:59;3.42;;;1.92;;
74342;SDS011;62767;50.300;8.070;2024-01-15T12:20:27;3.42;;;1.92;;
74342;SDS011;62767;50.300;8.070;2024-01-15T12:22:54;2.83;;;1.70;;
74342;SDS011;62767;50.300;8.070;2024-01-15T12:25:22;3.85;;;1.88;;
74342;SDS011;62767;50.300;8.070;2024-01-15T12:27:49;4.05;;;1.90;;
74342;SDS011;62767;50.300;8.070;2024-01-15T12:30:15;3.80;;;1.83;;
74342;SDS011;62767;50.300;8.070;2024-01-15T12:32:41;3.35;;;1.80;;
74342;SDS011;62767;50.300;8.070;2024-01-15T12:35:10;3.55;;;1.95;;
74342;SDS011;62767;50.300;8.070;2024-01-15T12:37:36;3.15;;;1.90;;
74342;SDS011;62767;50.300;8.070;2024-01-15T12:40:05;3.67;;;2.08;;
74342;SDS011;62767;50.300;8.070;2024-01-15T12:42:41;3.20;;;1.80;;
74342;SDS011;62767;50.300;8.070;2024-01-15T12:45:08;3.83;;;1.88;;
74342;SDS011;62767;50.300;8.070;2024-01-15T12:47:38;3.45;;;1.90;;
74342;SDS011;62767;50.300;8.070;2024-01-15T12:50:07;3.00;;;1.60;;
74342;SDS011;62767;50.300;8.070;2024-01-15T12:52:34;2.75;;;1.77;;
74342;SDS011;62767;50.300;8.070;2024-01-15T12:55:00;2.65;;;1.63;;
74342;SDS011;62767;50.300;8.070;2024-01-15T12:57:25;3.47;;;1.90;;
74342;SDS011;62767;50.300;8.070;2024-01-15T12:59:50;2.58;;;1.70;;
74342;SDS011;62767;50.300;8.070;2024-01-15T13:02:16;3.72;;;1.95;;
74342;SDS011;62767;50.300;8.070;2024-01-15T13:04:42;3.78;;;1.90;;
74342;SDS011;62767;50.300;8.070;2024-01-15T13:07:08;3.08;;;1.85;;
74342;SDS011;62767;50.300;8.070;2024-01-15T13:09:34;2.95;;;1.58;;
74342;SDS011;62767;50.300;8.070;2024-01-15T13:12:00;2.10;;;1.50;;
74342;SDS011;62767;50.300;8.070;2024-01-15T13:16:53;2.47;;;1.48;;
74342;SDS011;62767;50.300;8.070;2024-01-15T13:19:19;2.90;;;1.80;;
74342;SDS011;62767;50.300;8.070;2024-01-15T13:21:47;2.70;;;1.70;;
74342;SDS011;62767;50.300;8.070;2024-01-15T13:24:12;4.05;;;1.75;;
74342;SDS011;62767;50.300;8.070;2024-01-15T13:26:39;3.10;;;1.55;;
74342;SDS011;62767;50.300;8.070;2024-01-15T13:29:05;2.58;;;1.58;;
74342;SDS011;62767;50.300;8.070;2024-01-15T13:31:34;3.35;;;1.60;;
74342;SDS011;62767;50.300;8.070;2024-01-15T13:33:59;3.30;;;1.70;;
74342;SDS011;62767;50.300;8.070;2024-01-15T13:36:25;3.30;;;1.70;;
74342;SDS011;62767;50.300;8.070;2024-01-15T13:38:52;3.00;;;1.60;;
74342;SDS011;62767;50.300;8.070;2024-01-15T13:41:19;2.75;;;1.50;;
74342;SDS011;62767;50.300;8.070;2024-01-15T13:43:50;2.72;;;1.80;;
74342;SDS011;62767;50.300;8.070;2024-01-15T13:46:18;3.30;;;1.70;;
74342;SDS011;62767;50.300;8.070;2024-01-15T13:48:45;2.85;;;1.70;;
74342;SDS011;62767;50.300;8.070;2024-01-15T13:51:10;3.33;;;1.70;;
74342;SDS011;62767;50.300;8.070;2024-01-15T13:53:39;2.70;;;1.52;;
74342;SDS011;62767;50.300;8.070;2024-01-15T13:56:05;2.95;;;1.58;;
74342;SDS011;62767;50.300;8.070;2024-01-15T13:58:32;2.58;;;1.50;;
74342;SDS011;62767;50.300;8.070;2024-01-15T14:00:58;3.25;;;1.67;;
74342;SDS011;62767;50.300;8.070;2024-01-15T14:03:24;2.47;;;1.42;;
74342;SDS011;62767;50.300;8.070;2024-01-15T14:05:51;2.35;;;1.42;;
74342;SDS011;62767;50.300;8.070;2024-01-15T14:08:16;2.47;;;1.25;;
74342;SDS011;62767;50.300;8.070;2024-01-15T14:10:42;2.67;;;1.55;;
74342;SDS011;62767;50.300;8.070;2024-01-15T14:13:07;2.53;;;1.38;;
74342;SDS011;62767;50.300;8.070;2024-01-15T14:15:34;2.40;;;1.40;;
74342;SDS011;62767;50.300;8.070;2024-01-15T14:18:00;3.22;;;1.60;;
74342;SDS011;62767;50.300;8.070;2024-01-15T14:20:26;2.00;;;1.30;;
74342;SDS011;62767;50.300;8.070;2024-01-15T14:22:52;2.15;;;1.40;;
74342;SDS011;62767;50.300;8.070;2024-01-15T14:25:19;2.20;;;1.40;;
74342;SDS011;62767;50.300;8.070;2024-01-15T14:27:45;2.65;;;1.63;;
74342;SDS011;62767;50.300;8.070;2024-01-15T14:30:11;2.63;;;1.48;;
74342;SDS011;62767;50.300;8.070;2024-01-15T14:32:38;2.15;;;1.30;;
74342;SDS011;62767;50.300;8.070;2024-01-15T14:35:04;2.78;;;1.55;;
74342;SDS011;62767;50.300;8.070;2024-01-15T14:39:56;2.00;;;1.20;;
74342;SDS011;62767;50.300;8.070;2024-01-15T14:42:22;4.00;;;1.35;;
74342;SDS011;62767;50.300;8.070;2024-01-15T14:44:47;2.85;;;1.40;;
74342;SDS011;62767;50.300;8.070;2024-01-15T14:47:13;3.17;;;1.40;;
74342;SDS011;62767;50.300;8.070;2024-01-15T14:49:38;1.77;;;1.30;;
74342;SDS011;62767;50.300;8.070;2024-01-15T14:52:04;2.88;;;1.50;;
74342;SDS011;62767;50.300;8.070;2024-01-15T14:54:30;4.35;;;1.50;;
74342;SDS011;62767;50.300;8.070;2024-01-15T14:56:55;3.67;;;1.40;;
74342;SDS011;62767;50.300;8.070;2024-01-15T14:59:22;2.97;;;1.20;;
74342;SDS011;62767;50.300;8.070;2024-01-15T15:01:47;1.77;;;1.10;;
74342;SDS011;62767;50.300;8.070;2024-01-15T15:04:13;1.80;;;1.20;;
74342;SDS011;62767;50.300;8.070;2024-01-15T15:06:38;2.53;;;1.20;;
74342;SDS011;62767;50.300;8.070;2024-01-15T15:09:04;3.08;;;1.50;;
74342;SDS011;62767;50.300;8.070;2024-01-15T15:11:35;3.38;;;1.30;;
74342;SDS011;62767;50.300;8.070;2024-01-15T15:14:02;2.40;;;1.40;;